createdAt,value
2022-12-16T00:00:49.906Z,65.01
2022-12-16T00:03:58.378Z,64.91
2022-12-16T00:07:04.082Z,64.94
2022-12-16T00:10:11.418Z,65.26
2022-12-16T00:13:17.121Z,65.39
2022-12-16T00:16:23.866Z,65.43
2022-12-16T00:19:29.653Z,65.52
2022-12-16T00:22:35.429Z,65.70
2022-12-16T00:25:42.139Z,65.79
2022-12-16T00:28:48.145Z,66.24
2022-12-16T00:31:53.797Z,66.69
2022-12-16T00:34:59.653Z,66.65
2022-12-16T00:38:05.213Z,66.75
2022-12-16T00:41:10.765Z,66.76
2022-12-16T00:44:16.410Z,66.73
2022-12-16T00:47:21.947Z,66.53
2022-12-16T00:50:28.021Z,66.18
2022-12-16T00:53:33.887Z,66.06
2022-12-16T00:56:39.845Z,66.13
2022-12-16T00:59:45.689Z,66.26
2022-12-16T01:02:53.563Z,66.53
2022-12-16T01:05:59.451Z,66.60
2022-12-16T01:09:05.203Z,66.41
2022-12-16T01:12:11.059Z,66.55
2022-12-16T01:15:17.224Z,66.98
2022-12-16T01:18:22.873Z,67.11
2022-12-16T01:21:28.525Z,66.83
2022-12-16T01:24:34.372Z,67.13
2022-12-16T01:27:40.138Z,67.02
2022-12-16T01:30:45.789Z,67.03
2022-12-16T01:33:51.849Z,67.04
2022-12-16T01:36:57.501Z,67.01
2022-12-16T01:40:03.361Z,67.09
2022-12-16T01:43:13.643Z,67.45
2022-12-16T01:46:24.698Z,67.61
2022-12-16T01:49:35.354Z,67.61
2022-12-16T01:52:47.740Z,67.73
2022-12-16T01:55:56.753Z,67.69
2022-12-16T01:59:03.414Z,67.69
2022-12-16T02:02:10.194Z,67.36
2022-12-16T02:05:24.625Z,67.28
2022-12-16T02:08:30.372Z,67.42
2022-12-16T02:12:04.448Z,67.54
2022-12-16T02:15:24.889Z,67.85
2022-12-16T02:18:42.215Z,67.56
2022-12-16T02:21:53.910Z,67.22
2022-12-16T02:25:25.784Z,66.93
2022-12-16T02:28:51.805Z,66.90
2022-12-16T02:32:09.228Z,66.60
2022-12-16T02:35:26.351Z,66.62
2022-12-16T02:38:43.164Z,66.89
2022-12-16T02:41:57.936Z,67.15
2022-12-16T02:45:09.598Z,67.46
2022-12-16T02:48:15.174Z,67.52
2022-12-16T02:51:21.537Z,67.76
2022-12-16T02:54:25.963Z,67.90
2022-12-16T02:58:00.537Z,68.13
2022-12-16T03:01:13.470Z,68.30
2022-12-16T03:04:23.675Z,68.41
2022-12-16T03:07:32.033Z,68.43
2022-12-16T03:10:46.152Z,68.65
2022-12-16T03:13:55.888Z,68.62
2022-12-16T03:17:03.109Z,68.74
2022-12-16T03:20:14.138Z,68.89
2022-12-16T03:23:24.209Z,69.00
2022-12-16T03:26:35.546Z,68.70
2022-12-16T03:29:47.903Z,68.53
2022-12-16T03:33:00.819Z,68.26
2022-12-16T03:36:11.599Z,67.78
2022-12-16T03:39:20.319Z,67.55
2022-12-16T03:42:28.021Z,67.48
2022-12-16T03:45:38.378Z,67.31
2022-12-16T03:48:50.917Z,67.03
2022-12-16T03:51:57.481Z,66.66
2022-12-16T03:55:03.025Z,66.52
2022-12-16T03:58:08.669Z,66.36
2022-12-16T04:01:15.808Z,66.18
2022-12-16T04:04:21.611Z,66.14
2022-12-16T04:07:27.078Z,66.19
2022-12-16T04:10:53.394Z,66.02
2022-12-16T04:14:17.173Z,65.84
2022-12-16T04:17:40.844Z,66.04
2022-12-16T04:21:08.112Z,66.09
2022-12-16T04:24:20.513Z,66.08
2022-12-16T04:27:26.172Z,66.07
2022-12-16T04:30:35.001Z,66.61
2022-12-16T04:33:58.521Z,66.94
2022-12-16T04:37:22.648Z,67.48
2022-12-16T04:40:45.813Z,67.75
2022-12-16T04:44:09.279Z,68.16
2022-12-16T04:47:32.837Z,68.33
2022-12-16T04:50:56.213Z,68.20
2022-12-16T04:54:19.483Z,68.05
2022-12-16T04:57:42.850Z,67.45
2022-12-16T05:01:07.939Z,67.42
2022-12-16T05:04:31.530Z,67.64
2022-12-16T05:07:54.999Z,67.53
2022-12-16T05:11:18.468Z,67.60
2022-12-16T05:14:41.935Z,67.47
2022-12-16T05:18:05.102Z,67.44
2022-12-16T05:21:28.775Z,67.80
2022-12-16T05:24:53.201Z,68.32
2022-12-16T05:28:17.474Z,68.76
2022-12-16T05:31:42.807Z,68.60
2022-12-16T05:35:06.248Z,68.77
2022-12-16T05:38:29.603Z,68.82
2022-12-16T05:41:52.841Z,68.61
2022-12-16T05:45:15.927Z,68.47
2022-12-16T05:48:43.114Z,68.48
2022-12-16T05:52:09.217Z,68.54
2022-12-16T05:55:34.190Z,68.75
2022-12-16T05:58:56.972Z,68.66
2022-12-16T06:02:20.687Z,68.69
2022-12-16T06:05:43.911Z,68.87
2022-12-16T06:09:07.172Z,68.98
2022-12-16T06:12:30.645Z,68.38
2022-12-16T06:15:53.774Z,67.85
2022-12-16T06:19:16.913Z,67.82
2022-12-16T06:22:40.336Z,67.79
2022-12-16T06:26:03.704Z,67.92
2022-12-16T06:29:29.226Z,67.73
2022-12-16T06:32:57.588Z,67.71
2022-12-16T06:36:20.668Z,67.79
2022-12-16T06:39:45.033Z,68.13
2022-12-16T06:43:09.959Z,68.26
2022-12-16T06:46:33.499Z,68.05
2022-12-16T06:49:57.000Z,67.99
2022-12-16T06:53:20.573Z,68.06
2022-12-16T06:56:43.604Z,68.14
2022-12-16T07:00:06.582Z,68.26
2022-12-16T07:03:35.362Z,68.34
2022-12-16T07:06:59.261Z,68.35
2022-12-16T07:10:25.189Z,68.11
2022-12-16T07:13:46.911Z,67.81
2022-12-16T07:17:15.243Z,67.88
2022-12-16T07:20:40.056Z,67.91
2022-12-16T07:24:03.368Z,68.27
2022-12-16T07:27:26.513Z,68.64
2022-12-16T07:30:49.795Z,69.00
2022-12-16T07:34:12.957Z,69.08
2022-12-16T07:37:36.544Z,69.05
2022-12-16T07:40:59.801Z,69.29
2022-12-16T07:44:23.160Z,69.67
2022-12-16T07:47:46.293Z,69.73
2022-12-16T07:51:09.695Z,69.33
2022-12-16T07:54:32.809Z,69.05
2022-12-16T07:57:56.218Z,68.88
2022-12-16T08:01:20.979Z,69.15
2022-12-16T08:04:44.490Z,69.35
2022-12-16T08:08:07.850Z,69.39
2022-12-16T08:11:31.123Z,69.54
2022-12-16T08:14:54.380Z,69.87
2022-12-16T08:18:19.383Z,69.82
2022-12-16T08:21:42.569Z,70.00
2022-12-16T08:25:05.613Z,70.03
2022-12-16T08:28:28.893Z,70.37
2022-12-16T08:31:52.245Z,70.41
2022-12-16T08:35:19.501Z,70.42
2022-12-16T08:38:42.767Z,70.24
2022-12-16T08:42:06.341Z,69.89
2022-12-16T08:45:30.524Z,69.70
2022-12-16T08:48:53.790Z,69.60
2022-12-16T08:52:31.512Z,69.50
2022-12-16T08:55:55.912Z,69.28
2022-12-16T08:59:19.457Z,69.39
2022-12-16T09:02:43.084Z,69.63
2022-12-16T09:06:08.850Z,69.51
2022-12-16T09:09:32.322Z,69.09
2022-12-16T09:12:55.483Z,68.87
2022-12-16T09:16:20.021Z,68.89
2022-12-16T09:19:43.217Z,69.17
2022-12-16T09:23:06.301Z,68.89
2022-12-16T09:26:29.616Z,68.54
2022-12-16T09:30:04.406Z,68.48
2022-12-16T09:33:27.975Z,68.56
2022-12-16T09:36:51.109Z,68.32
2022-12-16T09:40:14.305Z,68.15
2022-12-16T09:43:57.193Z,68.58
2022-12-16T09:47:28.065Z,67.88
2022-12-16T09:50:54.710Z,67.70
2022-12-16T09:54:20.862Z,67.39
2022-12-16T09:57:49.647Z,67.64
2022-12-16T10:01:15.101Z,67.94
2022-12-16T10:04:38.930Z,67.76
2022-12-16T10:08:08.952Z,67.15
2022-12-16T10:11:43.378Z,66.07
2022-12-16T10:15:09.920Z,65.84
2022-12-16T10:33:32.445Z,67.50
2022-12-16T10:36:58.276Z,67.07
2022-12-16T10:40:23.492Z,66.60
2022-12-16T10:43:54.862Z,66.20
2022-12-16T10:47:19.228Z,66.70
2022-12-16T11:03:57.093Z,66.57
2022-12-16T11:07:20.324Z,66.93
2022-12-16T11:10:50.760Z,67.00
2022-12-16T11:14:33.966Z,67.15
2022-12-16T11:17:57.330Z,66.84
2022-12-16T11:21:36.366Z,66.42
2022-12-16T11:24:59.629Z,66.35
2022-12-16T11:28:30.266Z,66.15
2022-12-16T11:31:57.961Z,65.71
2022-12-16T11:35:28.871Z,65.34
2022-12-16T11:38:58.798Z,64.99
2022-12-16T11:42:23.569Z,64.89
2022-12-16T11:45:47.273Z,64.79
2022-12-16T11:49:13.814Z,64.65
2022-12-16T11:52:41.994Z,63.98
2022-12-16T11:56:14.187Z,63.46
2022-12-16T11:59:45.292Z,63.97
2022-12-16T12:03:15.862Z,64.77
2022-12-16T12:06:44.644Z,64.69
2022-12-16T12:30:24.976Z,66.56
2022-12-16T12:33:55.755Z,66.35
2022-12-16T12:37:30.965Z,66.05
2022-12-16T12:41:06.455Z,65.84
2022-12-16T12:44:48.561Z,65.71
2022-12-16T12:48:34.569Z,64.83
2022-12-16T12:52:05.189Z,64.82
2022-12-16T12:55:36.132Z,64.09
2022-12-16T12:59:01.166Z,64.46
2022-12-16T13:02:31.594Z,64.71
2022-12-16T13:05:57.088Z,64.67
2022-12-16T13:09:20.558Z,64.30
2022-12-16T13:12:47.370Z,64.33
2022-12-16T13:16:16.150Z,64.14
2022-12-16T13:20:11.427Z,64.13
2022-12-16T13:23:59.047Z,64.11
2022-12-16T13:27:22.724Z,63.93
2022-12-16T13:30:47.458Z,63.70
2022-12-16T13:34:13.859Z,64.23
2022-12-16T13:37:45.121Z,64.28
2022-12-16T13:41:15.237Z,64.07
2022-12-16T13:45:09.933Z,63.86
2022-12-16T13:48:52.343Z,63.95
2022-12-16T13:52:23.397Z,63.94
2022-12-16T13:55:49.705Z,64.41
2022-12-16T13:59:18.964Z,64.54
2022-12-16T14:02:50.474Z,64.27
2022-12-16T14:06:14.887Z,63.92
2022-12-16T14:09:49.723Z,64.21
2022-12-16T14:13:21.793Z,63.96
2022-12-16T14:16:57.188Z,64.40
2022-12-16T14:20:29.548Z,64.24
2022-12-16T14:24:01.107Z,64.40
2022-12-16T14:27:33.867Z,64.04
2022-12-16T14:30:58.359Z,64.04
2022-12-16T14:34:23.469Z,64.20
2022-12-16T14:37:55.167Z,64.63
2022-12-16T14:41:18.497Z,64.66
2022-12-16T14:44:43.626Z,64.57
2022-12-16T14:48:12.090Z,64.71
2022-12-16T14:51:50.201Z,64.79
2022-12-16T14:55:13.567Z,65.22
2022-12-16T14:58:38.984Z,65.19
2022-12-16T15:02:02.941Z,64.42
2022-12-16T15:05:27.871Z,64.41
2022-12-16T15:08:55.125Z,64.36
2022-12-16T15:12:20.336Z,64.44
2022-12-16T15:15:50.257Z,64.40
2022-12-16T15:19:19.306Z,63.96
2022-12-16T15:22:42.831Z,64.10
2022-12-16T15:26:13.361Z,64.72
2022-12-16T15:29:52.113Z,64.72
2022-12-16T15:33:15.353Z,64.62
2022-12-16T15:36:50.598Z,64.79
2022-12-16T15:40:13.861Z,64.64
2022-12-16T15:43:54.845Z,64.35
2022-12-16T15:47:20.661Z,64.73
2022-12-16T15:50:46.081Z,65.01
2022-12-16T15:54:22.252Z,65.31
2022-12-16T15:57:51.454Z,65.26
2022-12-16T16:01:19.610Z,65.34
2022-12-16T16:04:45.620Z,65.80
2022-12-16T16:08:08.826Z,65.44
2022-12-16T16:11:32.010Z,65.16
2022-12-16T16:14:55.352Z,65.36
2022-12-16T16:18:31.930Z,65.48
2022-12-16T16:21:55.193Z,65.11
2022-12-16T16:25:30.236Z,65.32
2022-12-16T16:28:53.909Z,65.34
2022-12-16T16:32:17.297Z,65.39
2022-12-16T16:35:40.437Z,65.31
2022-12-16T16:39:04.009Z,65.24
2022-12-16T16:42:28.395Z,65.18
2022-12-16T16:45:51.709Z,64.83
2022-12-16T16:49:14.724Z,64.62
2022-12-16T16:52:39.976Z,64.56
2022-12-16T16:56:03.295Z,64.72
2022-12-16T16:59:28.515Z,64.65
2022-12-16T17:02:51.828Z,64.07
2022-12-16T17:06:15.984Z,64.38
2022-12-16T17:09:39.226Z,64.55
2022-12-16T17:13:04.744Z,65.02
2022-12-16T17:16:28.511Z,64.61
2022-12-16T17:19:52.297Z,65.08
2022-12-16T17:23:15.357Z,64.91
2022-12-16T17:26:39.297Z,65.07
2022-12-16T17:30:02.818Z,65.29
2022-12-16T17:33:25.474Z,65.12
2022-12-16T17:36:48.721Z,65.12
2022-12-16T17:40:23.660Z,64.77
2022-12-16T17:43:47.231Z,65.04
2022-12-16T17:47:10.205Z,65.16
2022-12-16T17:50:33.664Z,65.13
2022-12-16T17:54:00.798Z,65.17
2022-12-16T17:57:26.536Z,65.00
2022-12-16T18:00:49.802Z,64.86
2022-12-16T18:04:12.892Z,64.83
2022-12-16T18:07:36.198Z,64.55
2022-12-16T18:10:59.492Z,64.34
2022-12-16T18:14:22.858Z,64.25
2022-12-16T18:17:46.327Z,64.22
2022-12-16T18:21:09.592Z,64.26
2022-12-16T18:24:33.062Z,64.32
2022-12-16T18:27:57.556Z,64.21
2022-12-16T18:31:25.193Z,64.07
2022-12-16T18:34:48.590Z,64.03
2022-12-16T18:38:16.276Z,64.08
2022-12-16T18:41:41.467Z,64.24
2022-12-16T18:45:07.395Z,64.25
2022-12-16T18:48:28.918Z,64.53
2022-12-16T18:51:52.387Z,64.65
2022-12-16T18:55:27.223Z,64.44
2022-12-16T18:58:51.586Z,64.26
2022-12-16T19:02:15.883Z,64.30
2022-12-16T19:05:39.475Z,64.08
2022-12-16T19:09:02.742Z,64.10
2022-12-16T19:12:26.825Z,64.49
2022-12-16T19:15:49.756Z,64.69
2022-12-16T19:19:19.323Z,64.62
2022-12-16T19:22:43.584Z,64.42
2022-12-16T19:26:06.843Z,64.37
2022-12-16T19:29:30.631Z,64.04
2022-12-16T19:32:53.987Z,63.80
2022-12-16T19:36:19.673Z,63.95
2022-12-16T19:39:42.873Z,63.70
2022-12-16T19:43:14.258Z,63.67
2022-12-16T19:46:37.543Z,63.63
2022-12-16T19:50:01.195Z,63.68
2022-12-16T19:53:24.430Z,63.59
2022-12-16T19:56:47.900Z,63.52
2022-12-16T20:00:11.128Z,63.22
2022-12-16T20:03:37.691Z,63.07
2022-12-16T20:07:01.174Z,63.01
2022-12-16T20:10:25.983Z,63.12
2022-12-16T20:13:49.148Z,63.33
2022-12-16T20:17:12.198Z,63.18
2022-12-16T20:20:35.868Z,63.70
2022-12-16T20:23:59.444Z,63.58
2022-12-16T20:27:23.116Z,63.62
2022-12-16T20:30:47.302Z,63.84
2022-12-16T20:34:15.029Z,63.71
2022-12-16T20:37:38.445Z,63.70
2022-12-16T20:41:01.911Z,63.68
2022-12-16T20:44:26.300Z,63.69
2022-12-16T20:47:49.464Z,63.69
2022-12-16T20:51:22.592Z,63.78
2022-12-16T20:54:49.407Z,63.39
2022-12-16T20:58:12.671Z,62.98
2022-12-16T21:01:36.332Z,63.10
2022-12-16T21:05:00.328Z,63.59
2022-12-16T21:08:24.474Z,63.83
2022-12-16T21:11:47.982Z,63.74
2022-12-16T21:15:11.553Z,63.63
2022-12-16T21:18:35.227Z,64.08
2022-12-16T21:21:58.493Z,63.86
2022-12-16T21:25:24.795Z,63.72
2022-12-16T21:28:48.913Z,63.90
2022-12-16T21:32:24.780Z,64.06
2022-12-16T21:35:47.589Z,63.69
2022-12-16T21:39:10.633Z,64.01
2022-12-16T21:42:36.743Z,64.04
2022-12-16T21:46:02.030Z,63.71
2022-12-16T21:49:25.602Z,63.54
2022-12-16T21:52:48.865Z,63.80
2022-12-16T21:56:14.074Z,63.72
2022-12-16T21:59:37.235Z,63.79
2022-12-16T22:03:00.400Z,63.63
2022-12-16T22:06:24.278Z,63.50
2022-12-16T22:09:47.952Z,63.71
2022-12-16T22:13:11.114Z,63.62
2022-12-16T22:16:34.798Z,63.67
2022-12-16T22:19:58.049Z,64.28
2022-12-16T22:23:37.068Z,64.86
2022-12-16T22:27:00.660Z,64.67
2022-12-16T22:30:25.691Z,65.01
2022-12-16T22:33:49.119Z,65.23
2022-12-16T22:37:12.909Z,65.91
2022-12-16T22:40:36.150Z,66.20
2022-12-16T22:43:59.338Z,66.43
2022-12-16T22:47:22.805Z,66.71
2022-12-16T22:50:45.148Z,67.06
2022-12-16T22:54:09.746Z,67.25
2022-12-16T22:57:33.013Z,67.93
2022-12-16T23:00:56.888Z,67.50
2022-12-16T23:04:20.468Z,67.09
2022-12-16T23:07:43.832Z,66.92
2022-12-16T23:11:14.259Z,66.53
2022-12-16T23:14:48.908Z,66.11
2022-12-16T23:18:12.222Z,65.83
2022-12-16T23:21:37.675Z,65.83
2022-12-16T23:25:00.940Z,65.76
2022-12-16T23:28:24.474Z,65.45
2022-12-16T23:31:48.016Z,65.35
2022-12-16T23:35:11.651Z,65.57
2022-12-16T23:38:34.912Z,66.18
2022-12-16T23:41:58.088Z,66.21
2022-12-16T23:45:36.192Z,65.45
2022-12-16T23:48:59.433Z,65.27
2022-12-16T23:52:22.823Z,65.11
2022-12-16T23:55:46.095Z,65.27
2022-12-16T23:59:09.762Z,65.25
